sensor_id;sensor_type;location;lat;lon;timestamp;pressure;altitude;pressure_sealevel;temperature;humidity
53550;BME280;67273;52.914;-0.982;2023-02-01T00:00:04;101723.34;;;17.00;39.35
53550;BME280;67273;52.914;-0.982;2023-02-01T00:02:30;101708.13;;;16.99;39.15
53550;BME280;67273;52.914;-0.982;2023-02-01T00:04:56;101693.91;;;16.97;38.84
53550;BME280;67273;52.914;-0.982;2023-02-01T00:07:22;101688.69;;;16.95;39.12
53550;BME280;67273;52.914;-0.982;2023-02-01T00:09:47;101685.13;;;16.95;39.01
53550;BME280;67273;52.914;-0.982;2023-02-01T00:12:13;101693.25;;;16.95;39.08
53550;BME280;67273;52.914;-0.982;2023-02-01T00:14:39;101686.38;;;16.92;38.97
53550;BME280;67273;52.914;-0.982;2023-02-01T00:17:07;101682.19;;;16.89;38.82
53550;BME280;67273;52.914;-0.982;2023-02-01T00:19:33;101679.47;;;16.89;38.79
53550;BME280;67273;52.914;-0.982;2023-02-01T00:21:59;101688.03;;;16.86;39.10
53550;BME280;67273;52.914;-0.982;2023-02-01T00:24:25;101690.94;;;16.85;39.02
53550;BME280;67273;52.914;-0.982;2023-02-01T00:26:51;101683.00;;;16.83;38.73
53550;BME280;67273;52.914;-0.982;2023-02-01T00:29:19;101695.69;;;16.83;38.75
53550;BME280;67273;52.914;-0.982;2023-02-01T00:31:45;101702.97;;;16.82;39.01
53550;BME280;67273;52.914;-0.982;2023-02-01T00:34:14;101698.63;;;16.81;38.67
53550;BME280;67273;52.914;-0.982;2023-02-01T00:36:40;101702.34;;;16.80;38.90
53550;BME280;67273;52.914;-0.982;2023-02-01T00:39:06;101710.50;;;16.80;38.96
53550;BME280;67273;52.914;-0.982;2023-02-01T00:41:32;101708.84;;;16.79;38.68
53550;BME280;67273;52.914;-0.982;2023-02-01T00:43:58;101711.75;;;16.78;38.63
53550;BME280;67273;52.914;-0.982;2023-02-01T00:46:24;101713.81;;;16.76;39.05
53550;BME280;67273;52.914;-0.982;2023-02-01T00:48:50;101702.13;;;16.75;38.61
53550;BME280;67273;52.914;-0.982;2023-02-01T00:51:18;101703.38;;;16.72;38.94
53550;BME280;67273;52.914;-0.982;2023-02-01T00:53:45;101690.81;;;16.71;38.65
53550;BME280;67273;52.914;-0.982;2023-02-01T00:56:11;101693.78;;;16.70;38.82
53550;BME280;67273;52.914;-0.982;2023-02-01T00:58:37;101680.19;;;16.70;38.67
53550;BME280;67273;52.914;-0.982;2023-02-01T01:01:05;101675.38;;;16.65;38.83
53550;BME280;67273;52.914;-0.982;2023-02-01T01:03:32;101668.06;;;16.66;38.74
53550;BME280;67273;52.914;-0.982;2023-02-01T01:06:02;101674.53;;;16.65;38.58
53550;BME280;67273;52.914;-0.982;2023-02-01T01:08:30;101683.50;;;16.65;38.63
53550;BME280;67273;52.914;-0.982;2023-02-01T01:10:56;101676.38;;;16.64;38.80
53550;BME280;67273;52.914;-0.982;2023-02-01T01:13:22;101674.72;;;16.63;38.33
53550;BME280;67273;52.914;-0.982;2023-02-01T01:15:47;101669.50;;;16.62;38.77
53550;BME280;67273;52.914;-0.982;2023-02-01T01:18:14;101668.00;;;16.59;38.67
53550;BME280;67273;52.914;-0.982;2023-02-01T01:20:40;101672.59;;;16.59;38.81
53550;BME280;67273;52.914;-0.982;2023-02-01T01:23:07;101669.06;;;16.58;38.84
53550;BME280;67273;52.914;-0.982;2023-02-01T01:25:38;101661.13;;;16.57;38.65
53550;BME280;67273;52.914;-0.982;2023-02-01T01:28:04;101666.56;;;16.57;38.62
53550;BME280;67273;52.914;-0.982;2023-02-01T01:30:29;101665.72;;;16.56;38.96
53550;BME280;67273;52.914;-0.982;2023-02-01T01:32:55;101670.28;;;16.56;38.57
53550;BME280;67273;52.914;-0.982;2023-02-01T01:35:21;101668.63;;;16.54;38.80
53550;BME280;67273;52.914;-0.982;2023-02-01T01:37:47;101666.94;;;16.53;38.96
53550;BME280;67273;52.914;-0.982;2023-02-01T01:40:13;101667.81;;;16.54;38.59
53550;BME280;67273;52.914;-0.982;2023-02-01T01:42:41;101673.44;;;16.52;38.46
53550;BME280;67273;52.914;-0.982;2023-02-01T01:45:24;101679.03;;;16.51;38.62
53550;BME280;67273;52.914;-0.982;2023-02-01T01:47:52;101670.06;;;16.50;38.82
53550;BME280;67273;52.914;-0.982;2023-02-01T01:50:25;101678.22;;;16.50;38.71
53550;BME280;67273;52.914;-0.982;2023-02-01T01:52:54;101689.25;;;16.49;38.92
53550;BME280;67273;52.914;-0.982;2023-02-01T01:55:22;101691.13;;;16.48;38.89
53550;BME280;67273;52.914;-0.982;2023-02-01T01:57:54;101703.84;;;16.48;38.98
53550;BME280;67273;52.914;-0.982;2023-02-01T02:00:21;101700.31;;;16.47;38.94
53550;BME280;67273;52.914;-0.982;2023-02-01T02:02:54;101695.91;;;16.46;38.84
53550;BME280;67273;52.914;-0.982;2023-02-01T02:05:21;101705.09;;;16.45;39.09
53550;BME280;67273;52.914;-0.982;2023-02-01T02:07:49;101705.94;;;16.46;38.83
53550;BME280;67273;52.914;-0.982;2023-02-01T02:10:16;101713.25;;;16.45;38.69
53550;BME280;67273;52.914;-0.982;2023-02-01T02:12:44;101709.88;;;16.43;38.76
53550;BME280;67273;52.914;-0.982;2023-02-01T02:15:14;101715.31;;;16.43;38.75
53550;BME280;67273;52.914;-0.982;2023-02-01T02:17:48;101715.31;;;16.43;38.79
53550;BME280;67273;52.914;-0.982;2023-02-01T02:20:35;101723.44;;;16.43;38.79
53550;BME280;67273;52.914;-0.982;2023-02-01T02:26:24;101739.91;;;16.42;38.65
53550;BME280;67273;52.914;-0.982;2023-02-01T02:32:24;101736.53;;;16.40;38.97
53550;BME280;67273;52.914;-0.982;2023-02-01T02:35:09;101749.28;;;16.39;38.77
53550;BME280;67273;52.914;-0.982;2023-02-01T02:37:44;101741.97;;;16.40;39.26
53550;BME280;67273;52.914;-0.982;2023-02-01T02:40:18;101744.91;;;16.38;39.16
53550;BME280;67273;52.914;-0.982;2023-02-01T02:42:53;101753.03;;;16.38;38.72
53550;BME280;67273;52.914;-0.982;2023-02-01T02:45:47;101745.94;;;16.37;39.13
53550;BME280;67273;52.914;-0.982;2023-02-01T02:48:50;101751.53;;;16.35;38.70
53550;BME280;67273;52.914;-0.982;2023-02-01T02:51:24;101742.56;;;16.35;38.87
53550;BME280;67273;52.914;-0.982;2023-02-01T02:54:15;101751.75;;;16.34;38.86
53550;BME280;67273;52.914;-0.982;2023-02-01T02:57:07;101758.22;;;16.33;39.11
53550;BME280;67273;52.914;-0.982;2023-02-01T03:00:02;101759.22;;;16.32;38.86
53550;BME280;67273;52.914;-0.982;2023-02-01T03:02:50;101764.66;;;16.32;38.77
53550;BME280;67273;52.914;-0.982;2023-02-01T03:05:39;101759.44;;;16.30;38.69
53550;BME280;67273;52.914;-0.982;2023-02-01T03:08:13;101753.19;;;16.30;39.03
53550;BME280;67273;52.914;-0.982;2023-02-01T03:10:48;101748.78;;;16.29;38.76
53550;BME280;67273;52.914;-0.982;2023-02-01T03:13:24;101740.63;;;16.29;38.93
53550;BME280;67273;52.914;-0.982;2023-02-01T03:15:59;101740.63;;;16.29;38.81
53550;BME280;67273;52.914;-0.982;2023-02-01T03:18:35;101742.53;;;16.28;38.91
53550;BME280;67273;52.914;-0.982;2023-02-01T03:21:12;101738.97;;;16.28;38.78
53550;BME280;67273;52.914;-0.982;2023-02-01T03:23:46;101734.56;;;16.27;39.21
53550;BME280;67273;52.914;-0.982;2023-02-01T03:26:19;101737.28;;;16.27;39.08
53550;BME280;67273;52.914;-0.982;2023-02-01T03:28:54;101725.81;;;16.25;38.84
53550;BME280;67273;52.914;-0.982;2023-02-01T03:31:23;101722.25;;;16.24;39.10
53550;BME280;67273;52.914;-0.982;2023-02-01T03:33:51;101724.16;;;16.24;38.78
53550;BME280;67273;52.914;-0.982;2023-02-01T03:36:25;101725.16;;;16.23;39.13
53550;BME280;67273;52.914;-0.982;2023-02-01T03:39:02;101719.75;;;16.23;38.87
53550;BME280;67273;52.914;-0.982;2023-02-01T03:41:37;101715.34;;;16.22;38.80
53550;BME280;67273;52.914;-0.982;2023-02-01T03:44:12;101706.38;;;16.21;39.05
53550;BME280;67273;52.914;-0.982;2023-02-01T03:46:45;101687.59;;;16.20;38.89
53550;BME280;67273;52.914;-0.982;2023-02-01T03:49:21;101688.66;;;16.19;39.03
53550;BME280;67273;52.914;-0.982;2023-02-01T03:51:54;101675.91;;;16.19;38.81
53550;BME280;67273;52.914;-0.982;2023-02-01T03:54:26;101657.97;;;16.18;38.84
53550;BME280;67273;52.914;-0.982;2023-02-01T03:56:57;101669.00;;;16.16;38.95
53550;BME280;67273;52.914;-0.982;2023-02-01T03:59:26;101659.00;;;16.17;39.00
53550;BME280;67273;52.914;-0.982;2023-02-01T04:01:51;101660.88;;;16.16;39.08
53550;BME280;67273;52.914;-0.982;2023-02-01T04:04:18;101647.53;;;16.15;39.14
53550;BME280;67273;52.914;-0.982;2023-02-01T04:06:51;101652.97;;;16.15;38.77
53550;BME280;67273;52.914;-0.982;2023-02-01T04:09:17;101658.56;;;16.13;38.82
53550;BME280;67273;52.914;-0.982;2023-02-01T04:11:44;101658.78;;;16.12;39.03
53550;BME280;67273;52.914;-0.982;2023-02-01T04:14:10;101669.81;;;16.10;39.03
53550;BME280;67273;52.914;-0.982;2023-02-01T04:16:36;101683.38;;;16.10;39.11
53550;BME280;67273;52.914;-0.982;2023-02-01T04:19:01;101670.81;;;16.09;39.00
53550;BME280;67273;52.914;-0.982;2023-02-01T04:21:28;101681.69;;;16.09;38.84
53550;BME280;67273;52.914;-0.982;2023-02-01T04:23:54;101676.25;;;16.09;38.88
53550;BME280;67273;52.914;-0.982;2023-02-01T04:26:20;101683.75;;;16.07;38.88
53550;BME280;67273;52.914;-0.982;2023-02-01T04:28:47;101680.00;;;16.08;38.87
53550;BME280;67273;52.914;-0.982;2023-02-01T04:31:13;101675.63;;;16.07;38.86
53550;BME280;67273;52.914;-0.982;2023-02-01T04:33:39;101674.97;;;16.05;38.81
53550;BME280;67273;52.914;-0.982;2023-02-01T04:36:05;101669.56;;;16.05;38.88
53550;BME280;67273;52.914;-0.982;2023-02-01T04:38:31;101679.56;;;16.05;38.68
53550;BME280;67273;52.914;-0.982;2023-02-01T04:40:57;101680.41;;;16.05;39.18
53550;BME280;67273;52.914;-0.982;2023-02-01T04:43:24;101672.47;;;16.04;38.78
53550;BME280;67273;52.914;-0.982;2023-02-01T04:45:51;101674.34;;;16.03;38.84
53550;BME280;67273;52.914;-0.982;2023-02-01T04:48:18;101672.66;;;16.02;39.24
53550;BME280;67273;52.914;-0.982;2023-02-01T04:50:45;101672.66;;;16.02;39.15
53550;BME280;67273;52.914;-0.982;2023-02-01T04:53:13;101681.66;;;16.03;38.91
53550;BME280;67273;52.914;-0.982;2023-02-01T04:55:39;101679.97;;;16.02;38.92
53550;BME280;67273;52.914;-0.982;2023-02-01T04:58:04;101667.47;;;16.01;38.96
53550;BME280;67273;52.914;-0.982;2023-02-01T05:00:30;101666.59;;;16.00;38.84
53550;BME280;67273;52.914;-0.982;2023-02-01T05:02:57;101672.03;;;16.00;38.85
53550;BME280;67273;52.914;-0.982;2023-02-01T05:05:23;101673.06;;;15.99;38.77
53550;BME280;67273;52.914;-0.982;2023-02-01T05:07:49;101664.09;;;15.99;38.97
53550;BME280;67273;52.914;-0.982;2023-02-01T05:10:15;101663.25;;;15.98;38.78
53550;BME280;67273;52.914;-0.982;2023-02-01T05:12:42;101670.75;;;15.96;39.16
53550;BME280;67273;52.914;-0.982;2023-02-01T05:15:27;101658.22;;;15.95;39.14
53550;BME280;67273;52.914;-0.982;2023-02-01T05:17:53;101666.34;;;15.95;38.78
53550;BME280;67273;52.914;-0.982;2023-02-01T05:20:20;101675.53;;;15.94;38.97
53550;BME280;67273;52.914;-0.982;2023-02-01T05:22:46;101672.81;;;15.94;38.95
53550;BME280;67273;52.914;-0.982;2023-02-01T05:25:11;101673.84;;;15.93;39.00
53550;BME280;67273;52.914;-0.982;2023-02-01T05:27:38;101676.56;;;15.93;38.96
53550;BME280;67273;52.914;-0.982;2023-02-01T05:30:04;101688.22;;;15.93;39.14
53550;BME280;67273;52.914;-0.982;2023-02-01T05:32:31;101686.56;;;15.92;39.29
53550;BME280;67273;52.914;-0.982;2023-02-01T05:34:57;101669.47;;;15.92;39.03
53550;BME280;67273;52.914;-0.982;2023-02-01T05:37:24;101680.31;;;15.92;38.99
53550;BME280;67273;52.914;-0.982;2023-02-01T05:39:50;101683.22;;;15.90;39.12
53550;BME280;67273;52.914;-0.982;2023-02-01T05:42:15;101684.22;;;15.89;39.13
53550;BME280;67273;52.914;-0.982;2023-02-01T05:44:42;101691.53;;;15.89;39.06
53550;BME280;67273;52.914;-0.982;2023-02-01T05:47:08;101686.13;;;15.89;39.16
53550;BME280;67273;52.914;-0.982;2023-02-01T05:49:34;101688.00;;;15.88;39.21
53550;BME280;67273;52.914;-0.982;2023-02-01T05:52:00;101671.06;;;15.86;39.45
53550;BME280;67273;52.914;-0.982;2023-02-01T05:54:27;101677.34;;;15.87;39.22
53550;BME280;67273;52.914;-0.982;2023-02-01T05:56:53;101669.22;;;15.87;39.19
53550;BME280;67273;52.914;-0.982;2023-02-01T05:59:19;101675.66;;;15.86;39.04
53550;BME280;67273;52.914;-0.982;2023-02-01T06:01:45;101678.38;;;15.86;39.20
53550;BME280;67273;52.914;-0.982;2023-02-01T06:04:10;101677.72;;;15.84;39.36
53550;BME280;67273;52.914;-0.982;2023-02-01T06:06:36;101680.44;;;15.84;38.93
53550;BME280;67273;52.914;-0.982;2023-02-01T06:09:02;101689.59;;;15.83;39.09
53550;BME280;67273;52.914;-0.982;2023-02-01T06:11:30;101682.50;;;15.82;38.96
53550;BME280;67273;52.914;-0.982;2023-02-01T06:13:56;101690.63;;;15.82;39.19
53550;BME280;67273;52.914;-0.982;2023-02-01T06:16:21;101702.31;;;15.82;38.98
53550;BME280;67273;52.914;-0.982;2023-02-01T06:18:47;101703.38;;;15.81;39.30
53550;BME280;67273;52.914;-0.982;2023-02-01T06:21:13;101704.19;;;15.82;39.15
53550;BME280;67273;52.914;-0.982;2023-02-01T06:23:41;101702.50;;;15.81;39.21
53550;BME280;67273;52.914;-0.982;2023-02-01T06:26:07;101693.53;;;15.80;38.88
53550;BME280;67273;52.914;-0.982;2023-02-01T06:28:34;101694.38;;;15.81;39.26
53550;BME280;67273;52.914;-0.982;2023-02-01T06:31:03;101691.84;;;15.79;39.02
53550;BME280;67273;52.914;-0.982;2023-02-01T06:33:32;101692.72;;;15.80;39.36
53550;BME280;67273;52.914;-0.982;2023-02-01T06:35:58;101671.03;;;15.80;39.30
53550;BME280;67273;52.914;-0.982;2023-02-01T06:38:25;101674.75;;;15.78;39.18
53550;BME280;67273;52.914;-0.982;2023-02-01T06:40:52;101675.59;;;15.79;38.91
53550;BME280;67273;52.914;-0.982;2023-02-01T06:43:18;101661.22;;;15.78;39.15
53550;BME280;67273;52.914;-0.982;2023-02-01T06:45:45;101661.22;;;15.78;39.08
53550;BME280;67273;52.914;-0.982;2023-02-01T06:48:11;101658.50;;;15.78;39.01
53550;BME280;67273;52.914;-0.982;2023-02-01T06:50:36;101666.63;;;15.78;38.87
53550;BME280;67273;52.914;-0.982;2023-02-01T06:53:02;101658.50;;;15.78;39.29
53550;BME280;67273;52.914;-0.982;2023-02-01T06:55:28;101661.22;;;15.78;39.36
53550;BME280;67273;52.914;-0.982;2023-02-01T06:57:54;101663.09;;;15.78;39.19
53550;BME280;67273;52.914;-0.982;2023-02-01T07:00:21;101670.41;;;15.77;39.18
53550;BME280;67273;52.914;-0.982;2023-02-01T07:02:48;101665.81;;;15.78;39.33
53550;BME280;67273;52.914;-0.982;2023-02-01T07:05:14;101673.09;;;15.77;39.07
53550;BME280;67273;52.914;-0.982;2023-02-01T07:07:40;101671.41;;;15.76;39.04
53550;BME280;67273;52.914;-0.982;2023-02-01T07:10:07;101672.25;;;15.77;39.04
53550;BME280;67273;52.914;-0.982;2023-02-01T07:12:33;101678.72;;;15.76;39.52
53550;BME280;67273;52.914;-0.982;2023-02-01T07:14:59;101682.25;;;15.76;39.18
53550;BME280;67273;52.914;-0.982;2023-02-01T07:17:24;101685.97;;;15.75;39.40
53550;BME280;67273;52.914;-0.982;2023-02-01T07:19:51;101686.84;;;15.76;39.12
53550;BME280;67273;52.914;-0.982;2023-02-01T07:22:17;101691.41;;;15.75;39.33
53550;BME280;67273;52.914;-0.982;2023-02-01T07:24:43;101702.25;;;15.75;39.12
53550;BME280;67273;52.914;-0.982;2023-02-01T07:27:09;101690.56;;;15.75;39.38
53550;BME280;67273;52.914;-0.982;2023-02-01T07:29:34;101690.56;;;15.75;39.62
53550;BME280;67273;52.914;-0.982;2023-02-01T07:32:00;101692.25;;;15.76;39.12
53550;BME280;67273;52.914;-0.982;2023-02-01T07:34:27;101688.69;;;15.75;39.46
53550;BME280;67273;52.914;-0.982;2023-02-01T07:36:55;101692.25;;;15.76;39.69
53550;BME280;67273;52.914;-0.982;2023-02-01T07:39:20;101698.69;;;15.75;40.28
53550;BME280;67273;52.914;-0.982;2023-02-01T07:41:46;101698.84;;;15.73;40.21
53550;BME280;67273;52.914;-0.982;2023-02-01T07:44:12;101691.97;;;15.71;40.62
53550;BME280;67273;52.914;-0.982;2023-02-01T07:46:38;101693.81;;;15.70;40.37
53550;BME280;67273;52.914;-0.982;2023-02-01T07:49:05;101694.69;;;15.71;40.67
53550;BME280;67273;52.914;-0.982;2023-02-01T07:51:31;101705.72;;;15.69;40.15
53550;BME280;67273;52.914;-0.982;2023-02-01T07:53:58;101697.59;;;15.69;40.28
53550;BME280;67273;52.914;-0.982;2023-02-01T07:56:24;101682.34;;;15.68;40.29
53550;BME280;67273;52.914;-0.982;2023-02-01T07:58:51;101701.31;;;15.68;40.06
53550;BME280;67273;52.914;-0.982;2023-02-01T08:01:19;101701.31;;;15.68;40.41
53550;BME280;67273;52.914;-0.982;2023-02-01T08:03:45;101705.06;;;15.67;40.06
53550;BME280;67273;52.914;-0.982;2023-02-01T08:06:11;101711.31;;;15.68;40.33
53550;BME280;67273;52.914;-0.982;2023-02-01T08:08:36;101709.63;;;15.67;40.16
53550;BME280;67273;52.914;-0.982;2023-02-01T08:11:06;101719.44;;;15.68;40.04
53550;BME280;67273;52.914;-0.982;2023-02-01T08:13:33;101712.16;;;15.68;39.81
53550;BME280;67273;52.914;-0.982;2023-02-01T08:16:00;101715.91;;;15.67;39.82
53550;BME280;67273;52.914;-0.982;2023-02-01T08:18:27;101719.44;;;15.68;40.30
53550;BME280;67273;52.914;-0.982;2023-02-01T08:20:53;101715.91;;;15.67;39.75
53550;BME280;67273;52.914;-0.982;2023-02-01T08:23:19;101703.38;;;15.66;39.88
53550;BME280;67273;52.914;-0.982;2023-02-01T08:25:45;101710.50;;;15.67;39.75
53550;BME280;67273;52.914;-0.982;2023-02-01T08:28:13;101700.47;;;15.68;39.81
53550;BME280;67273;52.914;-0.982;2023-02-01T08:30:39;101706.72;;;15.68;40.22
53550;BME280;67273;52.914;-0.982;2023-02-01T08:33:08;101689.66;;;15.68;39.86
53550;BME280;67273;52.914;-0.982;2023-02-01T08:35:35;101687.75;;;15.68;39.85
53550;BME280;67273;52.914;-0.982;2023-02-01T08:38:01;101692.16;;;15.69;39.81
53550;BME280;67273;52.914;-0.982;2023-02-01T08:40:27;101685.06;;;15.68;40.06
53550;BME280;67273;52.914;-0.982;2023-02-01T08:42:53;101675.06;;;15.69;39.91
53550;BME280;67273;52.914;-0.982;2023-02-01T08:45:22;101683.22;;;15.69;40.10
53550;BME280;67273;52.914;-0.982;2023-02-01T08:47:49;101678.63;;;15.69;39.75
53550;BME280;67273;52.914;-0.982;2023-02-01T08:50:16;101674.22;;;15.68;40.01
53550;BME280;67273;52.914;-0.982;2023-02-01T08:52:42;101678.63;;;15.69;39.88
53550;BME280;67273;52.914;-0.982;2023-02-01T08:55:08;101680.50;;;15.69;39.87
53550;BME280;67273;52.914;-0.982;2023-02-01T08:57:34;101676.94;;;15.68;40.05
53550;BME280;67273;52.914;-0.982;2023-02-01T09:00:00;101683.22;;;15.69;39.73
53550;BME280;67273;52.914;-0.982;2023-02-01T09:02:28;101689.56;;;15.61;41.33
53550;BME280;67273;52.914;-0.982;2023-02-01T09:04:55;101703.75;;;15.63;41.08
53550;BME280;67273;52.914;-0.982;2023-02-01T09:07:21;101719.63;;;15.66;40.80
53550;BME280;67273;52.914;-0.982;2023-02-01T09:09:47;101727.75;;;15.66;40.71
53550;BME280;67273;52.914;-0.982;2023-02-01T09:12:13;101726.94;;;15.66;40.82
53550;BME280;67273;52.914;-0.982;2023-02-01T09:14:39;101727.75;;;15.66;40.66
53550;BME280;67273;52.914;-0.982;2023-02-01T09:17:04;101732.16;;;15.67;40.45
53550;BME280;67273;52.914;-0.982;2023-02-01T09:19:32;101736.72;;;15.67;40.58
53550;BME280;67273;52.914;-0.982;2023-02-01T09:21:58;101732.16;;;15.67;40.56
53550;BME280;67273;52.914;-0.982;2023-02-01T09:24:24;101740.28;;;15.67;40.57
53550;BME280;67273;52.914;-0.982;2023-02-01T09:26:50;101737.56;;;15.67;40.63
53550;BME280;67273;52.914;-0.982;2023-02-01T09:29:16;101743.00;;;15.67;40.32
53550;BME280;67273;52.914;-0.982;2023-02-01T09:31:42;101732.16;;;15.67;40.29
53550;BME280;67273;52.914;-0.982;2023-02-01T09:34:07;101738.41;;;15.68;40.41
53550;BME280;67273;52.914;-0.982;2023-02-01T09:36:35;101732.16;;;15.67;40.36
53550;BME280;67273;52.914;-0.982;2023-02-01T09:39:01;101736.53;;;15.68;40.35
53550;BME280;67273;52.914;-0.982;2023-02-01T09:41:38;101743.00;;;15.67;40.01
53550;BME280;67273;52.914;-0.982;2023-02-01T09:44:16;101745.91;;;15.66;40.52
53550;BME280;67273;52.914;-0.982;2023-02-01T09:46:43;101746.72;;;15.66;40.08
53550;BME280;67273;52.914;-0.982;2023-02-01T09:49:13;101742.13;;;15.67;40.36
53550;BME280;67273;52.914;-0.982;2023-02-01T09:51:44;101748.41;;;15.67;40.39
53550;BME280;67273;52.914;-0.982;2023-02-01T09:54:14;101749.25;;;15.68;40.06
53550;BME280;67273;52.914;-0.982;2023-02-01T09:56:44;101751.13;;;15.67;40.38
53550;BME280;67273;52.914;-0.982;2023-02-01T09:59:23;101759.25;;;15.67;40.07
53550;BME280;67273;52.914;-0.982;2023-02-01T10:01:52;101748.41;;;15.67;40.29
53550;BME280;67273;52.914;-0.982;2023-02-01T10:04:18;101757.38;;;15.68;40.00
53550;BME280;67273;52.914;-0.982;2023-02-01T10:06:57;101754.66;;;15.68;40.00
53550;BME280;67273;52.914;-0.982;2023-02-01T10:09:50;101755.69;;;15.67;40.13
53550;BME280;67273;52.914;-0.982;2023-02-01T10:12:45;101760.09;;;15.68;40.14
53550;BME280;67273;52.914;-0.982;2023-02-01T10:15:22;101763.63;;;15.68;39.91
53550;BME280;67273;52.914;-0.982;2023-02-01T10:18:00;101763.81;;;15.67;40.30
53550;BME280;67273;52.914;-0.982;2023-02-01T10:20:30;101767.38;;;15.67;40.42
53550;BME280;67273;52.914;-0.982;2023-02-01T10:23:15;101779.22;;;15.66;40.10
53550;BME280;67273;52.914;-0.982;2023-02-01T10:25:51;101774.88;;;15.65;40.06
53550;BME280;67273;52.914;-0.982;2023-02-01T10:28:20;101789.06;;;15.67;40.22
53550;BME280;67273;52.914;-0.982;2023-02-01T10:30:48;101779.41;;;15.65;40.22
53550;BME280;67273;52.914;-0.982;2023-02-01T10:33:16;101794.66;;;15.66;39.84
53550;BME280;67273;52.914;-0.982;2023-02-01T10:35:44;101797.19;;;15.67;40.10
53550;BME280;67273;52.914;-0.982;2023-02-01T10:38:16;101783.63;;;15.67;39.98
53550;BME280;67273;52.914;-0.982;2023-02-01T10:40:46;101798.38;;;15.65;40.18
53550;BME280;67273;52.914;-0.982;2023-02-01T10:43:12;101794.47;;;15.67;40.41
53550;BME280;67273;52.914;-0.982;2023-02-01T10:45:38;101794.47;;;15.67;40.43
53550;BME280;67273;52.914;-0.982;2023-02-01T10:48:05;101784.66;;;15.66;40.54
53550;BME280;67273;52.914;-0.982;2023-02-01T10:50:36;101789.06;;;15.67;40.05
53550;BME280;67273;52.914;-0.982;2023-02-01T10:53:15;101792.59;;;15.68;40.08
53550;BME280;67273;52.914;-0.982;2023-02-01T10:55:48;101788.00;;;15.68;40.29
53550;BME280;67273;52.914;-0.982;2023-02-01T10:58:16;101788.00;;;15.68;40.33
53550;BME280;67273;52.914;-0.982;2023-02-01T11:00:48;101800.91;;;15.66;40.38
53550;BME280;67273;52.914;-0.982;2023-02-01T11:03:35;101796.31;;;15.67;40.06
53550;BME280;67273;52.914;-0.982;2023-02-01T11:06:03;101803.63;;;15.66;40.46
53550;BME280;67273;52.914;-0.982;2023-02-01T11:08:42;101785.69;;;15.65;40.07
53550;BME280;67273;52.914;-0.982;2023-02-01T11:11:09;101786.72;;;15.64;40.52
53550;BME280;67273;52.914;-0.982;2023-02-01T11:13:38;101789.44;;;15.64;40.31
53550;BME280;67273;52.914;-0.982;2023-02-01T11:16:06;101792.13;;;15.64;40.19
53550;BME280;67273;52.914;-0.982;2023-02-01T11:18:35;101785.88;;;15.64;40.49
53550;BME280;67273;52.914;-0.982;2023-02-01T11:21:03;101785.88;;;15.64;40.63
53550;BME280;67273;52.914;-0.982;2023-02-01T11:23:30;101790.44;;;15.63;40.47
53550;BME280;67273;52.914;-0.982;2023-02-01T11:26:02;101792.50;;;15.61;40.53
53550;BME280;67273;52.914;-0.982;2023-02-01T11:28:34;101790.00;;;15.59;40.14
53550;BME280;67273;52.914;-0.982;2023-02-01T11:31:03;101783.75;;;15.59;40.46
53550;BME280;67273;52.914;-0.982;2023-02-01T11:33:31;101791.03;;;15.58;40.39
53550;BME280;67273;52.914;-0.982;2023-02-01T11:36:01;101794.59;;;15.59;40.40
53550;BME280;67273;52.914;-0.982;2023-02-01T11:38:33;101792.91;;;15.58;40.58
53550;BME280;67273;52.914;-0.982;2023-02-01T11:41:13;101792.06;;;15.57;40.61
53550;BME280;67273;52.914;-0.982;2023-02-01T11:43:51;101796.66;;;15.57;40.47
53550;BME280;67273;52.914;-0.982;2023-02-01T11:46:19;101796.66;;;15.57;40.40
53550;BME280;67273;52.914;-0.982;2023-02-01T11:48:50;101795.81;;;15.56;40.27
53550;BME280;67273;52.914;-0.982;2023-02-01T11:51:26;101795.63;;;15.58;40.15
53550;BME280;67273;52.914;-0.982;2023-02-01T11:54:07;101794.94;;;15.56;40.31
53550;BME280;67273;52.914;-0.982;2023-02-01T11:56:39;101793.94;;;15.57;40.34
53550;BME280;67273;52.914;-0.982;2023-02-01T11:59:22;101791.22;;;15.57;40.50
53550;BME280;67273;52.914;-0.982;2023-02-01T12:02:08;101778.69;;;15.56;40.24
53550;BME280;67273;52.914;-0.982;2023-02-01T12:04:52;101784.13;;;15.56;40.31
53550;BME280;67273;52.914;-0.982;2023-02-01T12:07:28;101788.69;;;15.55;40.28
53550;BME280;67273;52.914;-0.982;2023-02-01T12:10:06;101790.59;;;15.55;40.75
53550;BME280;67273;52.914;-0.982;2023-02-01T12:12:50;101787.88;;;15.55;40.43
53550;BME280;67273;52.914;-0.982;2023-02-01T12:15:36;101782.66;;;15.53;40.61
53550;BME280;67273;52.914;-0.982;2023-02-01T12:18:50;101786.19;;;15.54;40.70
53550;BME280;67273;52.914;-0.982;2023-02-01T12:21:32;101784.53;;;15.53;40.82
53550;BME280;67273;52.914;-0.982;2023-02-01T12:27:04;101789.94;;;15.53;40.85
53550;BME280;67273;52.914;-0.982;2023-02-01T12:29:53;101779.09;;;15.53;40.71
53550;BME280;67273;52.914;-0.982;2023-02-01T12:32:38;101789.25;;;15.51;40.69
53550;BME280;67273;52.914;-0.982;2023-02-01T12:35:37;101774.69;;;15.52;40.59
53550;BME280;67273;52.914;-0.982;2023-02-01T12:38:20;101772.81;;;15.52;40.80
53550;BME280;67273;52.914;-0.982;2023-02-01T12:40:59;101762.00;;;15.52;40.80
53550;BME280;67273;52.914;-0.982;2023-02-01T12:43:36;101766.56;;;15.52;40.77
53550;BME280;67273;52.914;-0.982;2023-02-01T12:46:08;101770.97;;;15.53;40.69
53550;BME280;67273;52.914;-0.982;2023-02-01T12:48:38;101768.28;;;15.53;40.81
53550;BME280;67273;52.914;-0.982;2023-02-01T12:51:09;101750.31;;;15.52;41.06
53550;BME280;67273;52.914;-0.982;2023-02-01T12:53:43;101750.31;;;15.52;40.75
53550;BME280;67273;52.914;-0.982;2023-02-01T12:56:11;101751.34;;;15.51;40.64
53550;BME280;67273;52.914;-0.982;2023-02-01T12:58:43;101750.31;;;15.52;40.75
53550;BME280;67273;52.914;-0.982;2023-02-01T13:01:14;101748.63;;;15.51;40.59
53550;BME280;67273;52.914;-0.982;2023-02-01T13:03:44;101741.56;;;15.50;41.07